Home / Local Weather & Traffic / California / Grapevine Past Weather

Grapevine, CA Past Weather

Last 30 Days

 
High: 72ºf @9:13 AM    Low: 63ºf @6:13 AM     Approx. Precipitation / Rain Total: in.
Time (PDT)Temp. (ºf)Humidity (%)Dew Point (ºf)Barometer (inHG)Wind Speed (mph)Wind DirectionWind Gust (mph)1hr. Precip / Rain Total (in.)Snow Depth
10:13 AM703137.97-11.3sse16.51--
9:13 AM724549.48-4.34s7.82--
8:13 AM704849.4-2.61se4.34--
7:13 AM655347.45-4.34ne5.21--
6:13 AM635546.57-4.34ene5.21--
5:13 AM645547.5-1.74e4.34--
4:13 AM645447.02-2.61ese5.21--
2:13 AM656151.22-0.87nw3.48--
12:13 AM664644.62-1.74nnw5.21--
High: 81ºf @3:13 PM    Low: 65ºf @7:13 AM     Approx. Precipitation / Rain Total: in.
Time (PDT)Temp. (ºf)Humidity (%)Dew Point (ºf)Barometer (inHG)Wind Speed (mph)Wind DirectionWind Gust (mph)1hr. Precip / Rain Total (in.)Snow Depth
11:13 PM665247.86-2.61n5.21--
10:13 PM676052.65-5.21n6.95--
9:13 PM685953.13-2.61nnw6.08--
8:13 PM694244.94-0.87ne6.95--
7:13 PM742232.73-4.34s13.03--
4:13 PM811833.48-9.56s19.99--
3:13 PM811732.06-13.03s21.72--
2:13 PM801629.77-15.64sse22.59--
10:13 AM754049.02-8.69s11.3--
9:13 AM763848.54-2.61s5.21--
8:13 AM744551.29-1.74wsw3.48--
7:13 AM655648.91---1.74--
3:13 AM675449.8-0.87n5.21--
2:13 AM674947.2-2.61ne6.08--
1:13 AM674947.2-4.34ene6.95--
12:13 AM684948.12-5.21ne6.08--
High: 80ºf @1:13 PM    Low: 67ºf @3:13 AM     Approx. Precipitation / Rain Total: in.
Time (PDT)Temp. (ºf)Humidity (%)Dew Point (ºf)Barometer (inHG)Wind Speed (mph)Wind DirectionWind Gust (mph)1hr. Precip / Rain Total (in.)Snow Depth
11:13 PM714447.98-4.34n6.95--
10:13 PM715151.95-3.48n7.82--
9:13 PM735053.25-3.48n6.08--
7:13 PM754149.69-1.74n7.82--
6:13 PM793951.9-3.48ne7.82--
4:13 PM774654.61-3.48nnw8.69--
3:13 PM794354.57-7.82nne12.17--
2:13 PM804254.82-6.95nne13.03--
1:13 PM804556.73-6.08n10.43--
11:13 AM784051.7-6.08nne11.3--
10:13 AM793951.9-4.34nnw8.69--
9:13 AM784655.52-4.34n7.82--
8:13 AM745255.24-3.48nnw5.21--
7:13 AM686254.48-2.61nnw4.34--
5:13 AM676454.41-4.34n6.08--
4:13 AM676454.41-5.21n6.95--
3:13 AM676153.1-5.21nne6.95--
2:13 AM686053.59-5.21-6.08--
1:13 AM695552.15-5.21n6.95--
12:13 AM695250.63-5.21n7.82--
High: 80ºf @12:13 PM    Low: 64ºf @6:13 AM     Approx. Precipitation / Rain Total: in.
Time (PDT)Temp. (ºf)Humidity (%)Dew Point (ºf)Barometer (inHG)Wind Speed (mph)Wind DirectionWind Gust (mph)1hr. Precip / Rain Total (in.)Snow Depth
11:13 PM714950.86-5.21n7.82--
10:13 PM715252.48-3.48n6.95--
9:13 PM715754.99-4.34wnw7.82--
7:13 PM735656.36-6.08n10.43--
4:13 PM784957.27-6.95n12.17--
1:13 PM794757.02-6.08ne10.43--
12:13 PM804254.82-5.21nne13.03--
10:13 AM774956.36-2.61ne6.08--
8:13 AM696657.16-5.21n7.82--
7:13 AM657356.13-5.21n6.08--
6:13 AM646752.82-3.48nnw5.21--
4:13 AM656251.66-5.21n7.82--
2:13 AM666252.6-5.21n8.69--
1:13 AM675952.19-6.08n8.69--
12:13 AM675449.8-5.21n7.82--
High: 76ºf @1:13 PM    Low: 60ºf @6:13 AM     Approx. Precipitation / Rain Total: in.
Time (PDT)Temp. (ºf)Humidity (%)Dew Point (ºf)Barometer (inHG)Wind Speed (mph)Wind DirectionWind Gust (mph)1hr. Precip / Rain Total (in.)Snow Depth
11:13 PM685450.72-5.21n8.69--
10:13 PM685852.66-4.34n6.95--
6:13 PM735555.86-5.21n9.56--
5:13 PM735354.84-6.08nne13.03--
4:13 PM745255.24-6.95nne13.03--
3:13 PM754853.96-6.95n12.17--
2:13 PM754853.96-6.95nne11.3--
1:13 PM764955.44-6.08nne8.69--
12:13 PM754954.53-5.21ene9.56--
11:13 AM735153.79-4.34ene7.82--
10:13 AM725353.92-4.34nne7.82--
9:13 AM705553.08-3.48nne6.08--
8:13 AM666453.47-4.34nne7.82--
7:13 AM627453.61-6.08n6.95--
6:13 AM607652.41-6.08n6.95--
5:13 AM607652.41-6.08-7.82--
4:13 AM607652.41-6.08n7.82--
1:13 AM617251.9-6.08n7.82--
12:13 AM626449.68-4.34n6.08--
High: 69ºf @2:13 PM    Low: 56ºf @3:13 AM     Approx. Precipitation / Rain Total: in.
Time (PDT)Temp. (ºf)Humidity (%)Dew Point (ºf)Barometer (inHG)Wind Speed (mph)Wind DirectionWind Gust (mph)1hr. Precip / Rain Total (in.)Snow Depth
11:13 PM636350.2-3.48nnw6.95--
10:13 PM636751.86-2.61n5.21--
9:13 PM626951.71-2.61n6.08--
8:13 PM627052.1-4.34n8.69--
7:13 PM656251.66-5.21n9.56--
6:13 PM685852.66-6.08n10.43--
5:13 PM695652.64-6.08n12.17--
4:13 PM695351.15-6.08nnw13.03--
2:13 PM695652.64-6.95nne12.17--
1:13 PM685651.71-6.08nne11.3--
11:13 AM675751.26-5.21n10.43--
10:13 AM665750.32-5.21n8.69--
3:13 AM567347.47-5.21n6.95--
1:13 AM577147.69-5.21nne6.95--
12:13 AM586646.7-4.34n6.08--
High: 69ºf @3:13 PM    Low: 55ºf @4:13 AM     Approx. Precipitation / Rain Total: in.
Time (PDT)Temp. (ºf)Humidity (%)Dew Point (ºf)Barometer (inHG)Wind Speed (mph)Wind DirectionWind Gust (mph)1hr. Precip / Rain Total (in.)Snow Depth
10:13 PM606548.2-3.48n6.08--
9:13 PM606347.37-3.48n7.82--
8:13 PM606347.37-4.34n9.56--
7:13 PM655447.94-5.21n10.43--
6:13 PM665448.87-6.95n12.17--
3:13 PM695351.15-6.08nne13.03--
1:13 PM675550.29-6.95nne11.3--
12:13 PM675449.8-6.08nne10.43--
11:13 AM675248.79-6.08nne8.69--
10:13 AM675248.79-5.21nne8.69--
9:13 AM655548.43-5.21n8.69--
8:13 AM635446.09-3.48nnw6.08--
7:13 AM576846.54-4.34n6.08--
6:13 AM567046.35-3.48nw7.82--
4:13 AM557246.14-3.48n5.21--
3:13 AM567146.73-4.34n6.08--
1:13 AM587048.27-5.21n11.3--
High: 74ºf @5:13 PM    Low: 62ºf @5:13 AM     Approx. Precipitation / Rain Total: in.
Time (PDT)Temp. (ºf)Humidity (%)Dew Point (ºf)Barometer (inHG)Wind Speed (mph)Wind DirectionWind Gust (mph)1hr. Precip / Rain Total (in.)Snow Depth
10:13 PM654945.37-5.21n8.69--
7:13 PM714246.74-6.08n10.43--
5:13 PM743544.6-6.95n11.3--
3:13 PM743544.6-7.82n14.77--
2:13 PM743443.84-7.82nne16.51--
12:13 PM733342.18-7.82nne12.17--
10:13 AM713541.96-5.21ne7.82--
9:13 AM703641.81-5.21ne7.82--
8:13 AM684143.41-3.48nnw6.08--
5:13 AM624238.64-4.34n9.56--
4:13 AM643737.2-6.08n8.69--
2:13 AM653536.68-6.95n10.43--
1:13 AM683035.4-5.21nnw13.9--
12:13 AM693036.27-3.48n7.82--
High: 81ºf @3:13 PM    Low: 65ºf @5:13 AM     Approx. Precipitation / Rain Total: in.
Time (PDT)Temp. (ºf)Humidity (%)Dew Point (ºf)Barometer (inHG)Wind Speed (mph)Wind DirectionWind Gust (mph)1hr. Precip / Rain Total (in.)Snow Depth
11:13 PM692834.53-4.34n8.69--
10:13 PM712634.38-5.21n9.56--
9:13 PM722937.99-4.34n7.82--
8:13 PM732636.08-5.21n8.69--
7:13 PM762234.4-5.21n8.69--
6:13 PM791933.21-6.08n13.03--
3:13 PM811934.84-6.95n14.77--
2:13 PM812036.13-6.95n14.77--
10:13 AM792641.17-5.21n9.56--
8:13 AM752738.74-3.48n7.82--
7:13 AM693439.45-3.48n6.08--
6:13 AM673840.55-3.48nnw6.95--
5:13 AM654442.55-2.61n6.08--
3:13 AM664443.46-4.34nnw7.82--
2:13 AM674645.53-6.08n10.43--
12:13 AM703238.78-3.48n7.82--
High: 82ºf @4:13 PM    Low: 66ºf @4:13 AM     Approx. Precipitation / Rain Total: in.
Time (PDT)Temp. (ºf)Humidity (%)Dew Point (ºf)Barometer (inHG)Wind Speed (mph)Wind DirectionWind Gust (mph)1hr. Precip / Rain Total (in.)Snow Depth
11:13 PM713038-4.34n6.95--
10:13 PM713239.65-3.48n6.95--
9:13 PM723139.7-3.48n6.95--
8:13 PM732837.96-4.34n7.82--
7:13 PM762537.62-4.34n9.56--
6:13 PM792338.02-5.21n10.43--
4:13 PM822946.58-5.21nnw15.64--
3:13 PM802944.86-6.95nne12.17--
2:13 PM803247.47-6.95n13.9--
1:13 PM793448.21-6.08nne13.03--
12:13 PM793246.6-6.95nne13.03--
11:13 AM783346.54-6.08n9.56--
10:13 AM773144.03-5.21nnw8.69--
9:13 AM763143.16-4.34nnw7.82--
8:13 AM733543.72-3.48nnw6.08--
7:13 AM683942.11-4.34nnw7.82--
6:13 AM663940.33-3.48nnw6.95--
5:13 AM664040.98-3.48nnw6.95--
4:13 AM663940.33-3.48nnw8.69--
3:13 AM674041.87-5.21n8.69--
2:13 AM684143.41-3.48n6.08--
1:13 AM694043.66-4.34n6.95--
High: 80ºf @4:13 PM    Low: 64ºf @6:13 AM     Approx. Precipitation / Rain Total: in.
Time (PDT)Temp. (ºf)Humidity (%)Dew Point (ºf)Barometer (inHG)Wind Speed (mph)Wind DirectionWind Gust (mph)1hr. Precip / Rain Total (in.)Snow Depth
11:13 PM703843.21-4.34n6.08--
8:13 PM723744.29-4.34n6.95--
4:13 PM803348.29-6.08n13.03--
2:13 PM783447.34-6.95n12.17--
1:13 PM783749.6-7.82nne12.17--
12:13 PM783346.54-6.08n9.56--
9:13 AM754149.69-4.34nw6.08--
8:13 AM724851.22-4.34nw6.08--
7:13 AM675550.29-3.48nnw5.21--
6:13 AM645647.98-2.61nnw5.21--
5:13 AM645748.46-3.48n5.21--
4:13 AM655950.32-3.48nnw6.95--
3:13 AM655246.94-4.34n7.82--
2:13 AM674645.53-5.21n7.82--
1:13 AM703843.21-4.34n6.08--
12:13 AM713844.1-3.48nnw5.21--
High: 79ºf @4:13 PM    Low: 64ºf @4:13 AM     Approx. Precipitation / Rain Total: in.
Time (PDT)Temp. (ºf)Humidity (%)Dew Point (ºf)Barometer (inHG)Wind Speed (mph)Wind DirectionWind Gust (mph)1hr. Precip / Rain Total (in.)Snow Depth
11:13 PM714347.36-2.61n5.21--
9:13 PM714447.98-3.48nnw6.95--
7:13 PM753444.71-4.34n7.82--
6:13 PM783648.86-5.21n11.3--
4:13 PM793951.9-6.08n13.9--
2:13 PM783648.86-7.82n12.17--
1:13 PM773748.71-7.82nne12.17--
11:13 AM773547.23-6.08ne8.69--
10:13 AM793044.9-4.34nne7.82--
9:13 AM773748.71-3.48nw6.08--
8:13 AM743746.06-3.48wnw5.21--
6:13 AM675047.74-4.34wnw6.08--
5:13 AM646351.15-3.48nw5.21--
4:13 AM645647.98-3.48n7.82--
2:13 AM664745.18-6.08n9.56--
1:13 AM694345.56-6.08n10.43--
12:13 AM694144.31-6.08n8.69--
High: 80ºf @3:13 PM    Low: 64ºf @5:13 AM     Approx. Precipitation / Rain Total: in.
Time (PDT)Temp. (ºf)Humidity (%)Dew Point (ºf)Barometer (inHG)Wind Speed (mph)Wind DirectionWind Gust (mph)1hr. Precip / Rain Total (in.)Snow Depth
11:13 PM713944.78-4.34n6.08--
10:13 PM714146.1-3.48n6.95--
9:13 PM714146.1-3.48nnw6.95--
5:13 PM793246.6-6.08n12.17--
3:13 PM802843.94-6.95-12.17--
1:13 PM783648.86-6.08n13.03--
11:13 AM783648.86-6.08n8.69--
10:13 AM783245.73-4.34nnw7.82--
8:13 AM724448.88-4.34n6.08--
7:13 AM685149.19-2.61n5.21--
6:13 AM645848.92-3.48nw5.21--
5:13 AM645748.46-3.48nnw5.21--
4:13 AM655347.45-3.48n6.08--
3:13 AM655447.94-4.34n9.56--
2:13 AM674645.53-6.08n9.56--
1:13 AM684545.86-5.21n8.69--
12:13 AM694446.17-5.21n7.82--
High: 80ºf @3:13 PM    Low: 63ºf @4:13 AM     Approx. Precipitation / Rain Total: in.
Time (PDT)Temp. (ºf)Humidity (%)Dew Point (ºf)Barometer (inHG)Wind Speed (mph)Wind DirectionWind Gust (mph)1hr. Precip / Rain Total (in.)Snow Depth
11:13 PM704447.07-4.34n6.08--
10:13 PM704245.84-3.48n5.21--
8:13 PM713844.1-4.34n6.08--
6:13 PM783346.54-5.21n9.56--
5:13 PM793246.6-5.21n11.3--
4:13 PM793548.99-5.21n12.17--
3:13 PM803952.79-6.08n11.3--
12:13 PM754451.59-6.95n10.43--
11:13 AM764351.87-5.21nne9.56--
10:13 AM764351.87-4.34n7.82--
8:13 AM725253.4-3.48nw5.21--
7:13 AM685752.19-3.48nw4.34--
6:13 AM655749.39-2.61nnw6.08--
5:13 AM636048.89-4.34nnw6.08--
4:13 AM636048.89-3.48n6.08--
3:13 AM635847.99-5.21n9.56--
2:13 AM655950.32-7.82n12.17--
1:13 AM675349.3-5.21n8.69--
12:13 AM684948.12-6.08n8.69--
High: 78ºf @5:13 PM    Low: 65ºf @3:13 AM     Approx. Precipitation / Rain Total: in.
Time (PDT)Temp. (ºf)Humidity (%)Dew Point (ºf)Barometer (inHG)Wind Speed (mph)Wind DirectionWind Gust (mph)1hr. Precip / Rain Total (in.)Snow Depth
11:13 PM694747.92-4.34n6.95--
10:13 PM704346.46-4.34n6.08--
9:13 PM714347.36-3.48n6.08--
7:13 PM743846.77-4.34n8.69--
6:13 PM773547.23-5.21nne10.43--
5:13 PM783346.54-6.08nne10.43--
2:13 PM783346.54-6.08n13.03--
12:13 PM754250.33-6.08nne9.56--
7:13 AM695150.11-1.74nnw3.48--
6:13 AM665247.86-4.34n5.21--
5:13 AM675148.27-2.61nnw4.34--
4:13 AM655447.94-2.61n6.08--
3:13 AM655447.94-5.21nne8.69--
2:13 AM665247.86-5.21n8.69--
1:13 AM675047.74-4.34nne9.56--
12:13 AM684847.57-6.08n8.69--
High: 81ºf @2:13 PM    Low: 65ºf @3:13 AM     Approx. Precipitation / Rain Total: in.
Time (PDT)Temp. (ºf)Humidity (%)Dew Point (ºf)Barometer (inHG)Wind Speed (mph)Wind DirectionWind Gust (mph)1hr. Precip / Rain Total (in.)Snow Depth
11:13 PM695351.15-5.21n9.56--
10:13 PM714950.86-5.21n8.69--
9:13 PM725052.33-5.21n8.69--
6:13 PM783648.86-6.95n13.9--
2:13 PM813550.74-6.95n13.9--
1:13 PM793649.74-6.95n14.77--
12:13 PM773849.43-6.95nne11.3--
10:13 AM763848.54-6.08nne9.56--
8:13 AM715151.95-3.48n6.08--
5:13 AM655950.32-5.21n7.82--
4:13 AM656050.77-4.34n6.95--
3:13 AM656050.77-4.34nnw10.43--
2:13 AM665750.32-6.95n12.17--
12:13 AM714649.16-8.69-13.03--
High: 82ºf @4:13 PM    Low: 68ºf @12:13 AM     Approx. Precipitation / Rain Total: in.
Time (PDT)Temp. (ºf)Humidity (%)Dew Point (ºf)Barometer (inHG)Wind Speed (mph)Wind DirectionWind Gust (mph)1hr. Precip / Rain Total (in.)Snow Depth
10:13 PM714749.74-5.21n9.56--
9:13 PM724650.07-6.08n9.56--
7:13 PM763747.83-5.21n13.03--
6:13 PM793750.48-5.21n14.77--
5:13 PM803650.62-6.08n14.77--
4:13 PM823450.83-6.95n13.9--
12:13 PM793750.48-7.82n13.9--
11:13 AM763747.83-6.95n12.17--
10:13 AM773748.71-7.82n12.17--
7:13 AM724247.64-5.21n9.56--
6:13 AM694345.56-5.21n7.82--
5:13 AM684445.26-6.08nne7.82--
2:13 AM694345.56-6.08n9.56--
12:13 AM684747.01-6.08n13.03--
High: 84ºf @4:13 PM    Low: 70ºf @10:13 PM     Approx. Precipitation / Rain Total: in.
Time (PDT)Temp. (ºf)Humidity (%)Dew Point (ºf)Barometer (inHG)Wind Speed (mph)Wind DirectionWind Gust (mph)1hr. Precip / Rain Total (in.)Snow Depth
10:13 PM704145.21-8.69n13.03--
8:13 PM743947.46-6.95n10.43--
7:13 PM773748.71-4.34n10.43--
6:13 PM812945.72-6.08n15.64--
4:13 PM842241.04-6.95n13.03--
2:13 PM822441.62-6.95n13.9--
12:13 PM812339.69-7.82n13.03--
11:13 AM812541.84-5.21n12.17--
9:13 AM792742.14-5.21nnw7.82--
4:13 AM722635.23-3.48n5.21--
3:13 AM723240.52-3.48n6.08--
2:13 AM713541.96-5.21n9.56--
1:13 AM723341.31-3.48n7.82--
12:13 AM724147-3.48n6.08--
High: 80ºf @5:13 PM    Low: 72ºf @11:13 PM     Approx. Precipitation / Rain Total: in.
Time (PDT)Temp. (ºf)Humidity (%)Dew Point (ºf)Barometer (inHG)Wind Speed (mph)Wind DirectionWind Gust (mph)1hr. Precip / Rain Total (in.)Snow Depth
11:13 PM723744.29-5.21n7.82--
9:13 PM733039.72-3.48nnw6.08--
8:13 PM733342.18-5.21n7.82--
5:13 PM802944.86-5.21nw9.56--
3:13 PM773244.86-3.48nw8.69--
1:13 PM783749.6-5.21nne8.69--
11:13 AM764653.71-0.87s3.48--
10:13 AM774352.77-1.74e4.34--
9:13 AM784655.52-2.61s5.21--
8:13 AM765357.61-1.74n5.21--
7:13 AM735354.84-4.34ne6.08--
6:13 AM726157.8-4.34se14.77--
4:13 AM725655.43-13.03sse22.59--
12:13 AM773043.17-2.61n6.08--
High: 84ºf @8:13 AM    Low: 77ºf @10:13 PM     Approx. Precipitation / Rain Total: in.
Time (PDT)Temp. (ºf)Humidity (%)Dew Point (ºf)Barometer (inHG)Wind Speed (mph)Wind DirectionWind Gust (mph)1hr. Precip / Rain Total (in.)Snow Depth
10:13 PM773144.03---2.61--
9:13 PM773647.98-1.74wnw6.08--
7:13 PM783447.34-1.74nnw8.69--
6:13 PM783648.86-6.95n8.69--
1:13 PM813550.74-2.61ne5.21--
11:13 AM823350.03-4.34se7.82--
8:13 AM843049.2-0.87nnw3.48--
7:13 AM783245.73-3.48n4.34--
12:13 AM793044.9-2.61wnw9.56--
High: 88ºf @2:13 PM    Low: 71ºf @4:13 AM     Approx. Precipitation / Rain Total: in.
Time (PDT)Temp. (ºf)Humidity (%)Dew Point (ºf)Barometer (inHG)Wind Speed (mph)Wind DirectionWind Gust (mph)1hr. Precip / Rain Total (in.)Snow Depth
10:13 PM774453.4-6.95nne14.77--
8:13 PM743746.06-29.55sse38.23--
7:13 PM793044.9-0.87ne5.21--
6:13 PM823551.62-1.74w7.82--
4:13 PM872647.93-4.34s7.82--
2:13 PM882547.73-2.61s6.95--
1:13 PM862748.09-0.87ssw5.21--
12:13 PM832846.51-0.87e7.82--
11:13 AM832543.52-0.87nnw6.08--
10:13 AM832644.55-0.87n6.08--
6:13 AM723844.99-2.61n6.08--
4:13 AM714146.1-3.48nnw5.21--
2:13 AM723139.7-6.08n7.82--
1:13 AM732938.85-6.08n8.69--
12:13 AM742636.93-5.21n9.56--
High: 84ºf @4:13 PM    Low: 67ºf @6:13 AM     Approx. Precipitation / Rain Total: in.
Time (PDT)Temp. (ºf)Humidity (%)Dew Point (ºf)Barometer (inHG)Wind Speed (mph)Wind DirectionWind Gust (mph)1hr. Precip / Rain Total (in.)Snow Depth
11:13 PM752132.41-6.08n10.43--
10:13 PM752738.74-5.21n6.95--
9:13 PM743141.43-6.08n8.69--
7:13 PM792742.14-5.21n9.56--
6:13 PM812642.86-6.08n11.3--
4:13 PM842443.3-6.08nnw12.17--
3:13 PM832543.52-6.95n13.03--
12:13 PM832543.52-5.21nnw9.56--
11:13 AM812642.86-5.21nnw9.56--
7:13 AM714045.45-4.34nnw9.56--
6:13 AM674544.95-4.34nnw8.69--
4:13 AM675148.27-6.08n8.69--
3:13 AM684948.12-6.08n8.69--
2:13 AM694345.56-6.08n9.56--
1:13 AM713138.83-5.21n8.69--
12:13 AM723542.84-6.08-8.69--
High: 84ºf @3:13 PM    Low: 68ºf @4:13 AM     Approx. Precipitation / Rain Total: in.
Time (PDT)Temp. (ºf)Humidity (%)Dew Point (ºf)Barometer (inHG)Wind Speed (mph)Wind DirectionWind Gust (mph)1hr. Precip / Rain Total (in.)Snow Depth
11:13 PM743040.59-4.34n6.08--
10:13 PM752839.67-3.48n6.08--
9:13 PM753343.93-3.48nnw6.08--
7:13 PM792641.17-4.34n13.03--
6:13 PM812541.84-6.08n12.17--
5:13 PM832240.21-6.08n11.3--
3:13 PM842746.39-6.95n13.03--
1:13 PM822845.65-6.95nne11.3--
12:13 PM812945.72-6.08nne10.43--
11:13 AM803045.76-6.08n9.56--
10:13 AM802742.99-6.08nne9.56--
8:13 AM773144.03-5.21n7.82--
7:13 AM733745.17-5.21n7.82--
6:13 AM694144.31-3.48nnw6.95--
4:13 AM684244.04-5.21n6.95--
2:13 AM694043.66-4.34nnw7.82--
1:13 AM703943.89-5.21n10.43--
12:13 AM723542.84-6.08n7.82--
High: 84ºf @3:13 PM    Low: 69ºf @4:13 AM     Approx. Precipitation / Rain Total: in.
Time (PDT)Temp. (ºf)Humidity (%)Dew Point (ºf)Barometer (inHG)Wind Speed (mph)Wind DirectionWind Gust (mph)1hr. Precip / Rain Total (in.)Snow Depth
11:13 PM743443.84-5.21n6.95--
10:13 PM743443.84-4.34n6.95--
8:13 PM763143.16-3.48n6.95--
7:13 PM802944.86-4.34n8.69--
5:13 PM832745.54-6.08n12.17--
4:13 PM842746.39-5.21n10.43--
3:13 PM842544.37-6.08nne12.17--
12:13 PM822643.71-6.08nne11.3--
11:13 AM822542.68-5.21nne8.69--
10:13 AM812137.37-5.21nw7.82--
9:13 AM802338.85-3.48nnw5.21--
8:13 AM772942.29-3.48nw6.08--
7:13 AM733442.96-4.34nw6.08--
6:13 AM703742.52-4.34nw6.08--
5:13 AM694144.31-3.48nnw5.21--
4:13 AM694244.94-2.61nnw6.08--
3:13 AM694144.31-3.48nnw8.69--
2:13 AM704145.21-5.21n9.56--
1:13 AM713844.1-5.21n7.82--
12:13 AM723341.31-6.08nne8.69--
High: 85ºf @4:13 PM    Low: 67ºf @5:13 AM     Approx. Precipitation / Rain Total: in.
Time (PDT)Temp. (ºf)Humidity (%)Dew Point (ºf)Barometer (inHG)Wind Speed (mph)Wind DirectionWind Gust (mph)1hr. Precip / Rain Total (in.)Snow Depth
11:13 PM743343.06-4.34n8.69--
10:13 PM743141.43-3.48n6.95--
9:13 PM753041.45-3.48n6.08--
8:13 PM763042.31-3.48n6.95--
7:13 PM802742.99-4.34n10.43--
5:13 PM832442.46-5.21n12.17--
4:13 PM852241.87-5.21nnw12.17--
2:13 PM852140.66-6.08nnw13.03--
11:13 AM802742.99-6.08n9.56--
7:13 AM714447.98-3.48nnw6.08--
5:13 AM674846.65-2.61nnw6.95--
4:13 AM675449.8-5.21-7.82--
3:13 AM685249.71-5.21n7.82--
2:13 AM695150.11-4.34n7.82--
1:13 AM705050.49-3.48nnw6.95--
12:13 AM714447.98-5.21n7.82--
High: 76ºf @7:13 PM    Low: 72ºf @11:13 PM     Approx. Precipitation / Rain Total: in.
Time (PDT)Temp. (ºf)Humidity (%)Dew Point (ºf)Barometer (inHG)Wind Speed (mph)Wind DirectionWind Gust (mph)1hr. Precip / Rain Total (in.)Snow Depth
11:13 PM724750.65-4.34n6.08--
9:13 PM724650.07-4.34n6.08--
8:13 PM734449.78-3.48nnw7.82--
7:13 PM763848.54-5.21-11.3--
Past Weather Disclaimer Note regarding "Approx. Precipitation / Rain Total"

Past Weather Nearby

More Local Information

Bookmark and Share

Grapevine weather and traffic updates by locals

  • Margaret's report:

    Accident over turned truck trailer near Goeman exit

    Sat, Aug 5th 04:11:31 PM PDT

Write your own Grapevine, California report, forecast, or traffic update:

Please note by clicking on "Post" you acknowledge that you have read the Terms of Service and the Grapevine, CA report and/or forecast you are posting is in compliance with such terms. Be respectful. An inappropriate Grapevine, CA report and/or forecast will be removed by a moderator.